Aeroporto :
LOGIN :

Iscrizione | Disclaimer

   EN    FR    IT 

 










Sommario :    VFR   VFR Marginale   IFR   IFR Intensivo   IFR Molto Intensivo
Visibilità : 
Base nubi : 
>= 8 km
>= 3000ft
5 / 8 km
1000 / 3000 ft
1500m / 5 km
500 / 1000 ft
800 / 1500m
200 / 500 ft
< 800m
< 200 ft
Simboli :   Temporali  Nebbia  Neve Forte  Precipitazioni Forti  Vento > 20 kt
SIGMETs :   Varie  Temporali  Ghiacco  Turbolenza  Onda orograficha  Ceneri Vulcaniche






- Altitudine del aeroporto : 26 ft


ETNT - Wittmundhaven AB

ULTIMO METAR :
  • 210020Z AUTO 16004KT 0100 // ////// M01/M01 Q1016 ///

METARs OBSOLETI :
  • 202320Z AUTO 16003KT 0150 // ////// M01/M01 Q1016 ///
  • 202220Z AUTO VRB02KT 0100 // ////// M00/M01 Q1016 ///

TAF TAF ETNT
Valido dal 21 a 00 ore il 21 a 09 ore UTC


202300Z 2100/2109 14002KT 0100 FG VV001
TEMPO 2102/2107 09003KT 0500 FG OVC001
BECMG 2107/2109 08005KT 1500 BR OVC003 CANCEL BY ETGL -----------------------------



MetMap, La meteo Aeronautica in un colpo d'occhio ! - Copyright ORBIFLY Dicembre 2007 - Disclaimer

ORBIFLY MET'MAP TEAM :

Programmazione e sviluppo : Alexandra Zaïnal
Concezione e sviluppo : Baudouin d'Aumeries
Co-Programmazione e sviluppo : Marc-Olivier Méhu
Supporto tecnico e logistico : Manuel Goepfert
Aiuto per la traduzione : Arnaldo La Scala

Contatto : metmap@orbifly.com




FONTI E CREDITI :

   NOAA